createdAt,value
2022-08-29T00:01:28.747Z,97470.03
2022-08-29T00:03:58.138Z,97473.19
2022-08-29T00:06:26.096Z,97469.75
2022-08-29T00:08:53.398Z,97471.75
2022-08-29T00:11:21.137Z,97468.94
2022-08-29T00:13:48.975Z,97474.28
2022-08-29T00:16:16.645Z,97474.13
2022-08-29T00:18:44.434Z,97478.72
2022-08-29T00:21:11.755Z,97473.66
2022-08-29T00:23:40.551Z,97466.28
2022-08-29T00:26:08.154Z,97478.72
2022-08-29T00:28:35.737Z,97482.94
2022-08-29T00:31:03.812Z,97479.34
2022-08-29T00:33:31.441Z,97482.03
2022-08-29T00:35:59.059Z,97485.97
2022-08-29T00:38:27.824Z,97485.31
2022-08-29T00:40:58.021Z,97480.44
2022-08-29T00:43:33.637Z,97479.66
2022-08-29T00:46:09.700Z,97487.38
2022-08-29T00:48:39.984Z,97492.22
2022-08-29T00:51:15.199Z,97485.16
2022-08-29T00:53:46.542Z,97484.72
2022-08-29T00:56:16.872Z,97484.72
2022-08-29T00:59:23.266Z,97486.28
2022-08-29T01:01:53.467Z,97489.56
2022-08-29T01:04:24.054Z,97491.75
2022-08-29T01:06:53.243Z,97488.44
2022-08-29T01:09:21.552Z,97490.81
2022-08-29T01:12:08.100Z,97485.97
2022-08-29T01:14:38.592Z,97487.84
2022-08-29T01:17:10.223Z,97489.88
2022-08-29T01:19:54.105Z,97490.16
2022-08-29T01:22:58.415Z,97490.50
2022-08-29T01:25:31.466Z,97486.88
2022-08-29T01:28:19.980Z,97490.97
2022-08-29T01:31:15.832Z,97486.72
2022-08-29T01:34:03.272Z,97481.69
2022-08-29T01:36:43.738Z,97480.91
2022-08-29T01:39:10.924Z,97486.25
2022-08-29T01:41:38.299Z,97484.06
2022-08-29T01:44:13.525Z,97488.13
2022-08-29T01:46:40.915Z,97482.00
2022-08-29T01:49:11.621Z,97489.72
2022-08-29T01:51:40.548Z,97490.66
2022-08-29T01:54:10.533Z,97492.41
2022-08-29T01:56:45.476Z,97498.69
2022-08-29T01:59:19.055Z,97493.34
2022-08-29T02:02:01.366Z,97497.56
2022-08-29T02:04:29.454Z,97492.38
2022-08-29T02:06:57.995Z,97493.34
2022-08-29T02:09:26.596Z,97497.44
2022-08-29T02:11:54.764Z,97491.94
2022-08-29T02:14:23.687Z,97501.97
2022-08-29T02:16:51.589Z,97501.66
2022-08-29T02:19:19.614Z,97504.16
2022-08-29T02:21:47.469Z,97504.03
2022-08-29T02:24:25.362Z,97507.91
2022-08-29T02:26:56.095Z,97509.19
2022-08-29T02:29:25.073Z,97506.03
2022-08-29T02:31:52.660Z,97513.59
2022-08-29T02:34:20.167Z,97520.16
2022-08-29T02:36:48.150Z,97510.44
2022-08-29T02:39:18.194Z,97515.31
2022-08-29T02:41:45.981Z,97505.88
2022-08-29T02:44:13.653Z,97517.19
2022-08-29T02:46:41.072Z,97506.50
2022-08-29T02:49:08.431Z,97514.97
2022-08-29T02:51:35.828Z,97513.41
2022-08-29T02:54:03.605Z,97515.72
2022-08-29T02:56:31.293Z,97520.47
2022-08-29T02:58:58.885Z,97519.88
2022-08-29T03:01:26.508Z,97520.81
2022-08-29T03:03:54.676Z,97519.41
2022-08-29T03:06:23.110Z,97515.31
2022-08-29T03:08:51.010Z,97516.53
2022-08-29T03:11:21.477Z,97521.28
2022-08-29T03:13:48.764Z,97521.06
2022-08-29T03:16:16.384Z,97519.81
2022-08-29T03:18:43.761Z,97524.72
2022-08-29T03:21:24.088Z,97520.00
2022-08-29T03:23:52.503Z,97519.84
2022-08-29T03:26:20.468Z,97519.41
2022-08-29T03:28:48.324Z,97523.94
2022-08-29T03:31:16.017Z,97526.47
2022-08-29T03:33:43.633Z,97526.91
2022-08-29T03:36:13.871Z,97525.50
2022-08-29T03:38:44.130Z,97535.09
2022-08-29T03:41:11.728Z,97530.53
2022-08-29T03:43:39.093Z,97532.91
2022-08-29T03:46:06.554Z,97533.22
2022-08-29T03:48:34.023Z,97533.06
2022-08-29T03:51:01.562Z,97539.00
2022-08-29T03:53:30.764Z,97539.19
2022-08-29T03:55:58.451Z,97539.97
2022-08-29T03:58:25.825Z,97538.84
2022-08-29T04:00:53.305Z,97551.56
2022-08-29T04:03:30.820Z,97550.81
2022-08-29T04:06:00.120Z,97553.28
2022-08-29T04:08:27.514Z,97558.03
2022-08-29T04:10:54.831Z,97559.59
2022-08-29T04:13:22.260Z,97554.44
2022-08-29T04:15:50.242Z,97561.81
2022-08-29T04:18:21.262Z,97560.25
2022-08-29T04:20:49.147Z,97563.72
2022-08-29T04:23:17.743Z,97568.91
2022-08-29T04:25:45.449Z,97569.69
2022-08-29T04:28:14.957Z,97567.59
2022-08-29T04:30:51.596Z,97573.91
2022-08-29T04:33:25.730Z,97577.09
2022-08-29T04:35:53.482Z,97573.78
2022-08-29T04:38:21.055Z,97583.66
2022-08-29T04:40:48.802Z,97583.34
2022-08-29T04:43:17.072Z,97577.84
2022-08-29T04:45:44.328Z,97582.09
2022-08-29T04:48:11.686Z,97586.97
2022-08-29T04:50:39.293Z,97596.56
2022-08-29T04:53:06.550Z,97592.94
2022-08-29T04:55:33.880Z,97595.75
2022-08-29T04:58:01.680Z,97604.25
2022-08-29T05:00:31.467Z,97606.69
2022-08-29T05:02:58.829Z,97601.19
2022-08-29T05:05:27.459Z,97616.94
2022-08-29T05:07:55.183Z,97612.72
2022-08-29T05:10:23.107Z,97621.94
2022-08-29T05:12:50.580Z,97619.25
2022-08-29T05:15:18.777Z,97624.81
2022-08-29T05:17:46.080Z,97622.31
2022-08-29T05:20:14.025Z,97620.75
2022-08-29T05:22:42.392Z,97622.75
2022-08-29T05:25:17.912Z,97624.47
2022-08-29T05:27:46.765Z,97624.03
2022-08-29T05:30:29.223Z,97630.97
2022-08-29T05:33:02.592Z,97633.66
2022-08-29T05:35:29.986Z,97641.38
2022-08-29T05:37:57.334Z,97637.16
2022-08-29T05:40:25.122Z,97635.09
2022-08-29T05:42:52.447Z,97642.66
2022-08-29T05:45:19.840Z,97635.09
2022-08-29T05:47:47.164Z,97636.34
2022-08-29T05:50:17.069Z,97634.19
2022-08-29T05:52:45.127Z,97637.97
2022-08-29T05:55:13.154Z,97634.16
2022-08-29T05:57:40.517Z,97639.69
2022-08-29T06:00:09.903Z,97640.00
2022-08-29T06:02:40.318Z,97647.19
2022-08-29T06:05:08.323Z,97647.41
2022-08-29T06:07:37.844Z,97647.88
2022-08-29T06:10:08.449Z,97654.19
2022-08-29T06:12:36.783Z,97651.97
2022-08-29T06:15:04.660Z,97663.09
2022-08-29T06:17:32.044Z,97665.16
2022-08-29T06:19:59.270Z,97665.91
2022-08-29T06:22:26.946Z,97661.56
2022-08-29T06:24:57.617Z,97667.31
2022-08-29T06:27:25.783Z,97675.84
2022-08-29T06:29:53.187Z,97674.06
2022-08-29T06:32:20.493Z,97678.94
2022-08-29T06:34:47.754Z,97680.41
2022-08-29T06:37:15.389Z,97685.47
2022-08-29T06:39:42.818Z,97693.63
2022-08-29T06:42:10.451Z,97695.38
2022-08-29T06:44:42.484Z,97696.44
2022-08-29T06:47:11.615Z,97697.25
2022-08-29T06:49:38.873Z,97701.31
2022-08-29T06:52:06.279Z,97705.94
2022-08-29T06:54:33.626Z,97709.22
2022-08-29T06:57:01.078Z,97703.06
2022-08-29T06:59:28.469Z,97710.41
2022-08-29T07:01:55.808Z,97710.72
2022-08-29T07:04:26.414Z,97715.41
2022-08-29T07:06:54.116Z,97706.00
2022-08-29T07:09:21.825Z,97718.47
2022-08-29T07:11:49.335Z,97710.16
2022-08-29T07:14:16.856Z,97715.88
2022-08-29T07:16:44.085Z,97721.69
2022-08-29T07:19:11.797Z,97716.31
2022-08-29T07:21:39.475Z,97723.31
2022-08-29T07:24:07.855Z,97726.97
2022-08-29T07:26:42.205Z,97722.72
2022-08-29T07:29:16.823Z,97723.69
2022-08-29T07:31:44.265Z,97726.66
2022-08-29T07:34:12.011Z,97722.91
2022-08-29T07:36:40.325Z,97733.34
2022-08-29T07:39:13.629Z,97724.66
2022-08-29T07:41:43.814Z,97728.94
2022-08-29T07:44:13.005Z,97733.19
2022-08-29T07:46:40.903Z,97732.22
2022-08-29T07:49:08.416Z,97726.25
2022-08-29T07:51:36.200Z,97727.16
2022-08-29T07:54:04.501Z,97727.78
2022-08-29T07:56:38.551Z,97733.00
2022-08-29T07:59:07.325Z,97736.00
2022-08-29T08:01:35.774Z,97744.91
2022-08-29T08:04:03.792Z,97741.59
2022-08-29T08:06:31.411Z,97739.94
2022-08-29T08:09:01.760Z,97751.31
2022-08-29T08:11:29.232Z,97752.16
2022-08-29T08:13:57.734Z,97749.13
2022-08-29T08:16:28.375Z,97753.50
2022-08-29T08:18:56.894Z,97748.53
2022-08-29T08:21:26.331Z,97756.63
2022-08-29T08:23:54.662Z,97755.50
2022-08-29T08:26:22.810Z,97749.53
2022-08-29T08:28:50.920Z,97759.44
2022-08-29T08:31:18.913Z,97752.75
2022-08-29T08:33:47.362Z,97758.78
2022-08-29T08:36:29.934Z,97760.84
2022-08-29T08:39:00.013Z,97753.91
2022-08-29T08:41:49.544Z,97759.63
2022-08-29T08:44:22.740Z,97760.13
2022-08-29T08:46:58.326Z,97754.28
2022-08-29T08:49:44.837Z,97762.16
2022-08-29T08:52:25.552Z,97762.78
2022-08-29T08:55:01.845Z,97753.03
2022-08-29T08:57:50.074Z,97763.88
2022-08-29T09:00:17.476Z,97770.69
2022-08-29T09:03:25.865Z,97772.72
2022-08-29T09:06:21.065Z,97767.75
2022-08-29T09:09:25.014Z,97769.31
2022-08-29T09:12:21.986Z,97770.84
2022-08-29T09:15:07.709Z,97766.31
2022-08-29T09:18:00.910Z,97770.69
2022-08-29T09:20:33.207Z,97760.91
2022-08-29T09:23:25.920Z,97766.69
2022-08-29T09:25:53.239Z,97775.53
2022-08-29T09:28:21.356Z,97768.31
2022-08-29T09:31:14.917Z,97778.28
2022-08-29T09:33:53.231Z,97766.59
2022-08-29T09:36:53.206Z,97774.09
2022-08-29T09:39:32.544Z,97781.38
2022-08-29T09:42:13.647Z,97780.53
2022-08-29T09:44:51.299Z,97772.00
2022-08-29T09:47:32.932Z,97770.75
2022-08-29T09:50:27.235Z,97774.28
2022-08-29T09:53:01.518Z,97777.88
2022-08-29T09:55:45.822Z,97774.13
2022-08-29T09:58:13.844Z,97782.53
2022-08-29T10:00:58.852Z,97783.00
2022-08-29T10:03:29.232Z,97784.41
2022-08-29T10:06:24.190Z,97778.28
2022-08-29T10:09:24.105Z,97782.28
2022-08-29T10:12:03.831Z,97786.72
2022-08-29T10:14:38.409Z,97776.16
2022-08-29T10:17:40.070Z,97777.19
2022-08-29T10:20:11.711Z,97770.34
2022-08-29T10:22:58.953Z,97780.38
2022-08-29T10:25:40.488Z,97781.59
2022-08-29T10:28:20.456Z,97780.00
2022-08-29T10:30:57.353Z,97768.34
2022-08-29T10:33:55.520Z,97762.53
2022-08-29T10:36:33.581Z,97763.66
2022-08-29T10:39:50.190Z,97743.38
2022-08-29T10:42:25.566Z,97747.03
2022-08-29T10:45:23.369Z,97747.06
2022-08-29T10:48:11.767Z,97743.47
2022-08-29T10:51:22.222Z,97734.56
2022-08-29T10:54:20.151Z,97735.03
2022-08-29T10:56:49.366Z,97721.69
2022-08-29T10:59:27.172Z,97729.47
2022-08-29T11:02:27.186Z,97726.38
2022-08-29T11:04:58.368Z,97734.81
2022-08-29T11:07:48.950Z,97727.66
2022-08-29T11:10:29.581Z,97725.50
2022-08-29T11:13:08.316Z,97730.03
2022-08-29T11:15:48.431Z,97728.81
2022-08-29T11:18:38.383Z,97724.91
2022-08-29T11:21:31.009Z,97730.06
2022-08-29T11:23:58.599Z,97731.66
2022-08-29T11:26:48.465Z,97733.72
2022-08-29T11:29:31.504Z,97730.19
2022-08-29T11:32:28.149Z,97725.91
2022-08-29T11:35:24.921Z,97726.53
2022-08-29T11:38:24.669Z,97716.88
2022-08-29T11:41:35.670Z,97719.53
2022-08-29T11:44:35.478Z,97727.75
2022-08-29T11:47:40.732Z,97724.25
2022-08-29T11:50:17.674Z,97713.53
2022-08-29T11:53:20.957Z,97716.88
2022-08-29T11:56:13.180Z,97718.09
2022-08-29T11:58:43.437Z,97711.13
2022-08-29T12:01:36.173Z,97707.13
2022-08-29T12:04:07.996Z,97709.88
2022-08-29T12:06:38.204Z,97714.22
2022-08-29T12:09:14.585Z,97702.41
2022-08-29T12:12:04.077Z,97706.03
2022-08-29T12:14:38.077Z,97700.13
2022-08-29T12:17:28.975Z,97704.31
2022-08-29T12:20:07.423Z,97699.41
2022-08-29T12:22:52.662Z,97701.31
2022-08-29T12:25:43.399Z,97693.84
2022-08-29T12:28:21.003Z,97689.72
2022-08-29T12:31:10.099Z,97692.34
2022-08-29T12:34:05.718Z,97691.47
2022-08-29T12:36:59.031Z,97696.16
2022-08-29T12:40:05.578Z,97696.19
2022-08-29T12:43:04.706Z,97695.72
2022-08-29T12:45:36.117Z,97689.91
2022-08-29T12:48:13.117Z,97682.22
2022-08-29T12:50:48.282Z,97670.25
2022-08-29T12:53:33.473Z,97679.03
2022-08-29T12:56:20.941Z,97678.50
2022-08-29T12:58:59.449Z,97685.16
2022-08-29T13:01:31.003Z,97682.94
2022-08-29T13:04:13.040Z,97680.94
2022-08-29T13:06:59.136Z,97680.75
2022-08-29T13:09:43.433Z,97671.47
2022-08-29T13:12:21.827Z,97676.78
2022-08-29T13:15:06.855Z,97681.34
2022-08-29T13:17:37.778Z,97674.72
2022-08-29T13:20:40.350Z,97679.16
2022-08-29T13:23:23.646Z,97674.56
2022-08-29T13:26:02.163Z,97665.06
2022-08-29T13:28:48.237Z,97666.69
2022-08-29T13:31:15.577Z,97666.38
2022-08-29T13:33:46.051Z,97664.47
2022-08-29T13:36:59.504Z,97662.69
2022-08-29T13:39:46.967Z,97659.78
2022-08-29T13:42:25.922Z,97650.41
2022-08-29T13:45:23.952Z,97652.03
2022-08-29T13:48:18.523Z,97650.41
2022-08-29T13:53:18.296Z,97649.94
2022-08-29T13:55:46.067Z,97652.47
2022-08-29T13:58:15.168Z,97657.59
2022-08-29T14:00:43.838Z,97655.31
2022-08-29T14:03:12.443Z,97651.25
2022-08-29T14:05:40.250Z,97643.94
2022-08-29T14:08:07.714Z,97647.50
2022-08-29T14:10:35.464Z,97650.97
2022-08-29T14:13:03.494Z,97652.22
2022-08-29T14:15:31.634Z,97648.22
2022-08-29T14:17:59.553Z,97640.22
2022-08-29T14:20:26.975Z,97641.34
2022-08-29T14:22:54.353Z,97644.31
2022-08-29T14:25:21.860Z,97646.66
2022-08-29T14:27:49.495Z,97643.97
2022-08-29T14:30:22.303Z,97645.25
2022-08-29T14:32:49.913Z,97647.72
2022-08-29T14:35:26.784Z,97655.00
2022-08-29T14:38:01.434Z,97649.44
2022-08-29T14:40:30.215Z,97638.03
2022-08-29T14:42:59.088Z,97647.34
2022-08-29T14:45:29.245Z,97656.31
2022-08-29T14:47:57.260Z,97642.91
2022-08-29T14:50:25.121Z,97648.25
2022-08-29T14:52:53.188Z,97656.28
2022-08-29T14:55:21.512Z,97646.97
2022-08-29T14:57:49.510Z,97645.03
2022-08-29T15:00:25.597Z,97643.03
2022-08-29T15:02:53.413Z,97642.75
2022-08-29T15:05:21.462Z,97640.19
2022-08-29T15:07:49.396Z,97640.03
2022-08-29T15:10:20.961Z,97635.50
2022-08-29T15:12:48.427Z,97635.66
2022-08-29T15:15:16.039Z,97635.31
2022-08-29T15:17:43.937Z,97631.59
2022-08-29T15:23:01.511Z,97634.38
2022-08-29T15:25:29.488Z,97629.16
2022-08-29T15:27:56.829Z,97625.41
2022-08-29T15:30:25.808Z,97629.19
2022-08-29T15:32:53.252Z,97628.91
2022-08-29T15:35:20.938Z,97625.97
2022-08-29T15:37:48.369Z,97632.22
2022-08-29T15:40:16.070Z,97630.91
2022-08-29T15:42:43.414Z,97629.16
2022-08-29T15:45:11.593Z,97619.19
2022-08-29T15:47:40.400Z,97625.31
2022-08-29T15:50:15.144Z,97615.34
2022-08-29T15:52:42.712Z,97620.63
2022-08-29T15:55:11.397Z,97615.00
2022-08-29T15:57:50.955Z,97624.78
2022-08-29T16:00:30.313Z,97619.97
2022-08-29T16:03:03.253Z,97627.16
2022-08-29T16:05:32.451Z,97620.09
2022-08-29T16:08:00.014Z,97621.91
2022-08-29T16:10:27.585Z,97617.91
2022-08-29T16:12:54.984Z,97623.03
2022-08-29T16:15:22.474Z,97613.84
2022-08-29T16:17:49.877Z,97614.06
2022-08-29T16:20:17.187Z,97613.16
2022-08-29T16:22:44.788Z,97613.03
2022-08-29T16:25:13.749Z,97611.13
2022-08-29T16:27:41.541Z,97617.16
2022-08-29T16:30:10.501Z,97609.84
2022-08-29T16:32:39.826Z,97609.41
2022-08-29T16:35:08.146Z,97607.75
2022-08-29T16:37:35.759Z,97605.72
2022-08-29T16:40:05.498Z,97608.19
2022-08-29T16:42:34.163Z,97599.94
2022-08-29T16:45:01.670Z,97610.31
2022-08-29T16:47:29.088Z,97608.03
2022-08-29T16:49:56.495Z,97600.78
2022-08-29T16:52:23.874Z,97602.22
2022-08-29T16:54:52.108Z,97597.50
2022-08-29T16:57:21.601Z,97601.97
2022-08-29T16:59:49.822Z,97610.53
2022-08-29T17:02:17.490Z,97609.19
2022-08-29T17:04:46.667Z,97613.81
2022-08-29T17:07:14.078Z,97618.63
2022-08-29T17:09:41.445Z,97611.06
2022-08-29T17:12:09.144Z,97611.56
2022-08-29T17:14:37.263Z,97615.09
2022-08-29T17:17:05.074Z,97620.00
2022-08-29T17:19:34.149Z,97627.09
2022-08-29T17:22:01.900Z,97623.78
2022-08-29T17:24:29.358Z,97623.81
2022-08-29T17:26:57.575Z,97618.16
2022-08-29T17:29:25.075Z,97614.25
2022-08-29T17:31:52.578Z,97617.25
2022-08-29T17:34:20.043Z,97625.75
2022-08-29T17:36:47.332Z,97621.03
2022-08-29T17:39:14.788Z,97627.31
2022-08-29T17:41:43.380Z,97628.09
2022-08-29T17:44:13.147Z,97622.53
2022-08-29T17:46:40.599Z,97634.00
2022-08-29T17:49:10.468Z,97632.56
2022-08-29T17:51:39.682Z,97639.03
2022-08-29T17:54:12.651Z,97638.38
2022-08-29T17:56:52.770Z,97646.53
2022-08-29T17:59:21.687Z,97643.66
2022-08-29T18:01:49.231Z,97643.31
2022-08-29T18:04:17.103Z,97648.16
2022-08-29T18:06:45.428Z,97648.31
2022-08-29T18:09:13.724Z,97650.53
2022-08-29T18:11:45.153Z,97660.56
2022-08-29T18:14:13.130Z,97665.38
2022-08-29T18:16:40.611Z,97660.16
2022-08-29T18:19:08.395Z,97668.19
2022-08-29T18:21:36.209Z,97668.06
2022-08-29T18:24:06.462Z,97667.44
2022-08-29T18:26:35.056Z,97670.16
2022-08-29T18:29:02.621Z,97677.75
2022-08-29T18:31:30.098Z,97678.44
2022-08-29T18:34:00.635Z,97682.41
2022-08-29T18:36:30.310Z,97682.59
2022-08-29T18:38:57.996Z,97688.28
2022-08-29T18:41:25.640Z,97698.09
2022-08-29T18:43:53.701Z,97692.59
2022-08-29T18:46:21.788Z,97696.88
2022-08-29T18:48:49.502Z,97704.13
2022-08-29T18:51:17.488Z,97705.41
2022-08-29T18:53:47.316Z,97707.63
2022-08-29T18:56:14.917Z,97705.75
2022-08-29T18:58:44.456Z,97711.25
2022-08-29T19:01:33.543Z,97707.16
2022-08-29T19:04:02.713Z,97698.97
2022-08-29T19:06:30.116Z,97702.91
2022-08-29T19:08:58.040Z,97708.72
2022-08-29T19:11:28.364Z,97718.50
2022-08-29T19:13:55.846Z,97729.38
2022-08-29T19:16:24.040Z,97720.69
2022-08-29T19:18:52.827Z,97731.25
2022-08-29T19:21:20.667Z,97727.00
2022-08-29T19:23:52.185Z,97727.31
2022-08-29T19:26:28.659Z,97731.84
2022-08-29T19:29:05.135Z,97735.63
2022-08-29T19:31:32.770Z,97730.56
2022-08-29T19:34:00.789Z,97728.63
2022-08-29T19:36:28.246Z,97738.38
2022-08-29T19:38:56.064Z,97740.22
2022-08-29T19:41:25.038Z,97743.22
2022-08-29T19:43:53.187Z,97744.44
2022-08-29T19:46:23.740Z,97741.13
2022-08-29T19:48:52.336Z,97746.91
2022-08-29T19:51:24.713Z,97742.28
2022-08-29T19:53:57.365Z,97749.19
2022-08-29T19:56:26.625Z,97757.47
2022-08-29T19:58:54.634Z,97756.63
2022-08-29T20:01:22.324Z,97761.91
2022-08-29T20:03:49.695Z,97756.03
2022-08-29T20:06:17.424Z,97746.34
2022-08-29T20:08:50.239Z,97742.63
2022-08-29T20:11:23.361Z,97744.81
2022-08-29T20:13:53.730Z,97739.47
2022-08-29T20:16:25.249Z,97745.94
2022-08-29T20:18:53.845Z,97749.03
2022-08-29T20:21:23.620Z,97747.75
2022-08-29T20:23:57.814Z,97752.25
2022-08-29T20:26:31.463Z,97751.06
2022-08-29T20:29:01.555Z,97751.66
2022-08-29T20:31:29.884Z,97747.44
2022-08-29T20:33:57.653Z,97750.09
2022-08-29T20:36:44.587Z,97754.72
2022-08-29T20:39:15.911Z,97766.50
2022-08-29T20:41:57.525Z,97753.72
2022-08-29T20:44:33.554Z,97762.28
2022-08-29T20:47:01.637Z,97768.53
2022-08-29T20:49:29.404Z,97765.34
2022-08-29T20:51:56.984Z,97765.34
2022-08-29T20:54:25.534Z,97766.53
2022-08-29T20:56:53.808Z,97765.44
2022-08-29T20:59:24.691Z,97779.63
2022-08-29T21:01:55.561Z,97772.59
2022-08-29T21:04:42.198Z,97775.06
2022-08-29T21:07:13.358Z,97770.59
2022-08-29T21:09:44.999Z,97775.94
2022-08-29T21:12:14.911Z,97773.84
2022-08-29T21:14:43.218Z,97771.97
2022-08-29T21:17:13.541Z,97770.97
2022-08-29T21:19:42.501Z,97765.44
2022-08-29T21:22:12.312Z,97773.44
2022-08-29T21:24:41.025Z,97774.00
2022-08-29T21:27:08.444Z,97775.00
2022-08-29T21:29:35.942Z,97778.03
2022-08-29T21:32:03.793Z,97774.16
2022-08-29T21:34:31.597Z,97776.53
2022-08-29T21:36:59.113Z,97771.88
2022-08-29T21:39:28.958Z,97776.72
2022-08-29T21:42:00.920Z,97781.03
2022-08-29T21:44:30.327Z,97774.47
2022-08-29T21:46:58.037Z,97780.59
2022-08-29T21:49:27.129Z,97776.06
2022-08-29T21:51:54.534Z,97773.75
2022-08-29T21:54:22.756Z,97775.13
2022-08-29T21:56:50.346Z,97782.03
2022-08-29T21:59:19.342Z,97772.53
2022-08-29T22:01:48.993Z,97778.34
2022-08-29T22:04:28.092Z,97770.59
2022-08-29T22:06:58.341Z,97777.22
2022-08-29T22:09:28.311Z,97777.28
2022-08-29T22:11:56.356Z,97776.03
2022-08-29T22:14:44.599Z,97770.16
2022-08-29T22:17:11.978Z,97769.34
2022-08-29T22:19:39.651Z,97759.31
2022-08-29T22:22:08.693Z,97763.81
2022-08-29T22:24:37.594Z,97766.75
2022-08-29T22:27:05.052Z,97770.06
2022-08-29T22:29:33.433Z,97764.28
2022-08-29T22:32:00.822Z,97763.06
2022-08-29T22:34:28.171Z,97758.31
2022-08-29T22:36:56.296Z,97755.63
2022-08-29T22:39:23.673Z,97762.53
2022-08-29T22:41:51.356Z,97762.03
2022-08-29T22:47:06.963Z,97756.72
2022-08-29T22:49:34.190Z,97751.75
2022-08-29T22:52:02.264Z,97755.56
2022-08-29T22:54:35.577Z,97749.38
2022-08-29T22:57:10.971Z,97746.50
2022-08-29T22:59:40.195Z,97744.63
2022-08-29T23:02:09.455Z,97755.50
2022-08-29T23:04:38.582Z,97753.69
2022-08-29T23:07:07.508Z,97755.34
2022-08-29T23:09:35.795Z,97758.00
2022-08-29T23:12:08.127Z,97762.13
2022-08-29T23:14:37.797Z,97760.34
2022-08-29T23:17:08.291Z,97761.41
2022-08-29T23:19:37.449Z,97760.06
2022-08-29T23:22:10.102Z,97758.38
2022-08-29T23:24:39.357Z,97751.28
2022-08-29T23:27:08.901Z,97754.25
2022-08-29T23:29:41.912Z,97748.50
2022-08-29T23:32:09.489Z,97745.59
2022-08-29T23:34:36.753Z,97746.91
2022-08-29T23:37:04.106Z,97748.50
2022-08-29T23:39:31.567Z,97743.53
2022-08-29T23:41:59.628Z,97747.03
2022-08-29T23:44:27.112Z,97749.97
2022-08-29T23:46:58.121Z,97742.25
2022-08-29T23:49:25.586Z,97739.09
2022-08-29T23:51:53.098Z,97750.75
2022-08-29T23:54:20.491Z,97748.84
2022-08-29T23:56:47.815Z,97753.69
2022-08-29T23:59:35.001Z,97752.13
